sensor_id;sensor_type;location;lat;lon;timestamp;P1;durP1;ratioP1;P2;durP2;ratioP2
92;SDS011;16232;48.800;9.002;2023-05-08T00:01:17;12.33;;;11.23;;
92;SDS011;16232;48.800;9.002;2023-05-08T00:03:45;11.90;;;10.90;;
92;SDS011;16232;48.800;9.002;2023-05-08T00:06:13;12.77;;;11.57;;
92;SDS011;16232;48.800;9.002;2023-05-08T00:08:40;14.77;;;13.23;;
92;SDS011;16232;48.800;9.002;2023-05-08T00:11:08;16.63;;;14.93;;
92;SDS011;16232;48.800;9.002;2023-05-08T00:13:35;16.20;;;14.53;;
92;SDS011;16232;48.800;9.002;2023-05-08T00:16:04;18.20;;;16.40;;
92;SDS011;16232;48.800;9.002;2023-05-08T00:18:33;18.33;;;16.33;;
92;SDS011;16232;48.800;9.002;2023-05-08T00:21:03;12.30;;;11.20;;
92;SDS011;16232;48.800;9.002;2023-05-08T00:23:30;12.27;;;11.17;;
92;SDS011;16232;48.800;9.002;2023-05-08T00:25:58;14.70;;;13.23;;
92;SDS011;16232;48.800;9.002;2023-05-08T00:28:25;17.63;;;15.93;;
92;SDS011;16232;48.800;9.002;2023-05-08T00:30:53;16.70;;;15.27;;
92;SDS011;16232;48.800;9.002;2023-05-08T00:33:20;17.40;;;15.90;;
92;SDS011;16232;48.800;9.002;2023-05-08T00:35:48;20.37;;;18.13;;
92;SDS011;16232;48.800;9.002;2023-05-08T00:38:16;17.93;;;16.33;;
92;SDS011;16232;48.800;9.002;2023-05-08T00:40:44;18.67;;;16.87;;
92;SDS011;16232;48.800;9.002;2023-05-08T00:43:11;20.60;;;18.43;;
92;SDS011;16232;48.800;9.002;2023-05-08T00:45:39;21.77;;;19.60;;
92;SDS011;16232;48.800;9.002;2023-05-08T00:48:06;33.33;;;26.30;;
92;SDS011;16232;48.800;9.002;2023-05-08T00:50:34;24.73;;;22.13;;
92;SDS011;16232;48.800;9.002;2023-05-08T00:53:02;23.50;;;21.23;;
92;SDS011;16232;48.800;9.002;2023-05-08T00:55:31;25.07;;;22.43;;
92;SDS011;16232;48.800;9.002;2023-05-08T00:57:59;28.87;;;23.20;;
92;SDS011;16232;48.800;9.002;2023-05-08T01:00:27;21.70;;;19.73;;
92;SDS011;16232;48.800;9.002;2023-05-08T01:02:55;26.00;;;23.27;;
92;SDS011;16232;48.800;9.002;2023-05-08T01:05:22;23.83;;;21.40;;
92;SDS011;16232;48.800;9.002;2023-05-08T01:07:50;25.40;;;22.87;;
92;SDS011;16232;48.800;9.002;2023-05-08T01:10:17;24.20;;;21.73;;
92;SDS011;16232;48.800;9.002;2023-05-08T01:12:49;27.33;;;24.60;;
92;SDS011;16232;48.800;9.002;2023-05-08T01:15:20;37.00;;;29.20;;
92;SDS011;16232;48.800;9.002;2023-05-08T01:17:54;33.73;;;27.10;;
92;SDS011;16232;48.800;9.002;2023-05-08T01:20:41;28.57;;;25.73;;
92;SDS011;16232;48.800;9.002;2023-05-08T01:26:10;30.53;;;27.17;;
92;SDS011;16232;48.800;9.002;2023-05-08T01:31:35;27.03;;;24.23;;
92;SDS011;16232;48.800;9.002;2023-05-08T01:34:08;26.63;;;23.93;;
92;SDS011;16232;48.800;9.002;2023-05-08T01:36:38;37.20;;;28.67;;
92;SDS011;16232;48.800;9.002;2023-05-08T01:39:09;30.00;;;25.43;;
92;SDS011;16232;48.800;9.002;2023-05-08T01:41:37;26.07;;;23.23;;
92;SDS011;16232;48.800;9.002;2023-05-08T01:44:09;24.97;;;22.57;;
92;SDS011;16232;48.800;9.002;2023-05-08T01:46:39;24.13;;;21.63;;
92;SDS011;16232;48.800;9.002;2023-05-08T01:49:10;23.77;;;21.50;;
92;SDS011;16232;48.800;9.002;2023-05-08T01:51:39;23.30;;;21.10;;
92;SDS011;16232;48.800;9.002;2023-05-08T01:54:08;29.83;;;25.63;;
92;SDS011;16232;48.800;9.002;2023-05-08T01:56:37;26.07;;;23.27;;
92;SDS011;16232;48.800;9.002;2023-05-08T01:59:05;28.97;;;25.87;;
92;SDS011;16232;48.800;9.002;2023-05-08T02:01:33;26.93;;;24.23;;
92;SDS011;16232;48.800;9.002;2023-05-08T02:04:01;32.83;;;28.10;;
92;SDS011;16232;48.800;9.002;2023-05-08T02:06:32;29.87;;;26.67;;
92;SDS011;16232;48.800;9.002;2023-05-08T02:08:59;32.70;;;28.70;;
92;SDS011;16232;48.800;9.002;2023-05-08T02:11:28;24.00;;;21.57;;
92;SDS011;16232;48.800;9.002;2023-05-08T02:13:57;23.10;;;20.90;;
92;SDS011;16232;48.800;9.002;2023-05-08T02:16:26;26.20;;;23.53;;
92;SDS011;16232;48.800;9.002;2023-05-08T02:18:54;35.27;;;27.93;;
92;SDS011;16232;48.800;9.002;2023-05-08T02:21:23;24.33;;;22.03;;
92;SDS011;16232;48.800;9.002;2023-05-08T02:23:53;25.70;;;23.00;;
92;SDS011;16232;48.800;9.002;2023-05-08T02:26:20;32.73;;;28.03;;
92;SDS011;16232;48.800;9.002;2023-05-08T02:28:48;31.00;;;26.37;;
92;SDS011;16232;48.800;9.002;2023-05-08T02:31:16;38.57;;;30.77;;
92;SDS011;16232;48.800;9.002;2023-05-08T02:33:44;42.80;;;32.43;;
92;SDS011;16232;48.800;9.002;2023-05-08T02:36:14;31.67;;;27.67;;
92;SDS011;16232;48.800;9.002;2023-05-08T02:38:43;32.03;;;28.57;;
92;SDS011;16232;48.800;9.002;2023-05-08T02:41:12;44.03;;;34.70;;
92;SDS011;16232;48.800;9.002;2023-05-08T02:43:41;37.83;;;31.67;;
92;SDS011;16232;48.800;9.002;2023-05-08T02:46:09;49.83;;;36.30;;
92;SDS011;16232;48.800;9.002;2023-05-08T02:48:40;33.37;;;29.43;;
92;SDS011;16232;48.800;9.002;2023-05-08T02:51:14;25.73;;;23.27;;
92;SDS011;16232;48.800;9.002;2023-05-08T02:53:44;23.63;;;20.97;;
92;SDS011;16232;48.800;9.002;2023-05-08T02:56:15;24.07;;;21.77;;
92;SDS011;16232;48.800;9.002;2023-05-08T02:58:45;25.70;;;23.00;;
92;SDS011;16232;48.800;9.002;2023-05-08T03:01:15;27.47;;;24.57;;
92;SDS011;16232;48.800;9.002;2023-05-08T03:03:46;23.93;;;21.40;;
92;SDS011;16232;48.800;9.002;2023-05-08T03:06:17;36.67;;;29.97;;
92;SDS011;16232;48.800;9.002;2023-05-08T03:08:46;27.73;;;24.90;;
92;SDS011;16232;48.800;9.002;2023-05-08T03:11:16;30.30;;;27.23;;
92;SDS011;16232;48.800;9.002;2023-05-08T03:13:45;32.07;;;28.77;;
92;SDS011;16232;48.800;9.002;2023-05-08T03:16:15;41.60;;;32.43;;
92;SDS011;16232;48.800;9.002;2023-05-08T03:18:44;37.73;;;32.33;;
92;SDS011;16232;48.800;9.002;2023-05-08T03:21:13;39.67;;;33.90;;
92;SDS011;16232;48.800;9.002;2023-05-08T03:23:42;46.03;;;35.07;;
92;SDS011;16232;48.800;9.002;2023-05-08T03:26:10;28.63;;;25.73;;
92;SDS011;16232;48.800;9.002;2023-05-08T03:28:40;28.70;;;25.60;;
92;SDS011;16232;48.800;9.002;2023-05-08T03:31:07;32.40;;;27.60;;
92;SDS011;16232;48.800;9.002;2023-05-08T03:33:36;49.67;;;35.73;;
92;SDS011;16232;48.800;9.002;2023-05-08T03:36:05;38.00;;;31.73;;
92;SDS011;16232;48.800;9.002;2023-05-08T03:38:33;49.30;;;39.10;;
92;SDS011;16232;48.800;9.002;2023-05-08T03:41:00;48.97;;;37.50;;
92;SDS011;16232;48.800;9.002;2023-05-08T03:43:28;45.40;;;37.07;;
92;SDS011;16232;48.800;9.002;2023-05-08T03:45:57;36.10;;;32.30;;
92;SDS011;16232;48.800;9.002;2023-05-08T03:48:25;26.73;;;24.03;;
92;SDS011;16232;48.800;9.002;2023-05-08T03:50:53;32.97;;;27.23;;
92;SDS011;16232;48.800;9.002;2023-05-08T03:53:21;38.80;;;32.93;;
92;SDS011;16232;48.800;9.002;2023-05-08T03:55:48;43.83;;;35.70;;
92;SDS011;16232;48.800;9.002;2023-05-08T03:58:17;39.43;;;34.43;;
92;SDS011;16232;48.800;9.002;2023-05-08T04:00:50;52.73;;;38.53;;
92;SDS011;16232;48.800;9.002;2023-05-08T04:03:22;63.77;;;40.97;;
92;SDS011;16232;48.800;9.002;2023-05-08T04:05:54;42.13;;;35.90;;
92;SDS011;16232;48.800;9.002;2023-05-08T04:08:26;52.07;;;39.57;;
92;SDS011;16232;48.800;9.002;2023-05-08T04:10:56;45.83;;;38.20;;
92;SDS011;16232;48.800;9.002;2023-05-08T04:13:26;41.33;;;35.83;;
92;SDS011;16232;48.800;9.002;2023-05-08T04:15:56;50.17;;;38.20;;
92;SDS011;16232;48.800;9.002;2023-05-08T04:18:28;50.23;;;36.90;;
92;SDS011;16232;48.800;9.002;2023-05-08T04:20:56;39.13;;;33.43;;
92;SDS011;16232;48.800;9.002;2023-05-08T04:23:24;35.00;;;30.17;;
92;SDS011;16232;48.800;9.002;2023-05-08T04:25:52;38.60;;;32.10;;
92;SDS011;16232;48.800;9.002;2023-05-08T04:28:20;44.87;;;35.23;;
92;SDS011;16232;48.800;9.002;2023-05-08T04:30:47;45.00;;;35.93;;
92;SDS011;16232;48.800;9.002;2023-05-08T04:33:15;44.23;;;34.60;;
92;SDS011;16232;48.800;9.002;2023-05-08T04:35:44;53.00;;;37.50;;
92;SDS011;16232;48.800;9.002;2023-05-08T04:38:12;53.07;;;38.07;;
92;SDS011;16232;48.800;9.002;2023-05-08T04:40:39;52.00;;;37.67;;
92;SDS011;16232;48.800;9.002;2023-05-08T04:43:06;57.53;;;41.03;;
92;SDS011;16232;48.800;9.002;2023-05-08T04:45:34;43.57;;;36.60;;
92;SDS011;16232;48.800;9.002;2023-05-08T04:48:01;40.17;;;33.53;;
92;SDS011;16232;48.800;9.002;2023-05-08T04:50:29;36.30;;;32.37;;
92;SDS011;16232;48.800;9.002;2023-05-08T04:52:58;33.07;;;29.67;;
92;SDS011;16232;48.800;9.002;2023-05-08T04:55:25;38.17;;;31.17;;
92;SDS011;16232;48.800;9.002;2023-05-08T04:57:52;33.03;;;29.20;;
92;SDS011;16232;48.800;9.002;2023-05-08T05:00:20;31.03;;;27.97;;
92;SDS011;16232;48.800;9.002;2023-05-08T05:02:47;32.87;;;29.43;;
92;SDS011;16232;48.800;9.002;2023-05-08T05:05:15;35.17;;;31.50;;
92;SDS011;16232;48.800;9.002;2023-05-08T05:07:42;34.93;;;30.90;;
92;SDS011;16232;48.800;9.002;2023-05-08T05:10:11;36.50;;;32.70;;
92;SDS011;16232;48.800;9.002;2023-05-08T05:12:38;32.50;;;28.67;;
92;SDS011;16232;48.800;9.002;2023-05-08T05:15:06;41.93;;;33.27;;
92;SDS011;16232;48.800;9.002;2023-05-08T05:17:34;27.50;;;24.70;;
92;SDS011;16232;48.800;9.002;2023-05-08T05:20:02;32.77;;;29.30;;
92;SDS011;16232;48.800;9.002;2023-05-08T05:22:30;28.87;;;26.00;;
92;SDS011;16232;48.800;9.002;2023-05-08T05:24:58;30.40;;;27.27;;
92;SDS011;16232;48.800;9.002;2023-05-08T05:27:27;31.50;;;27.90;;
92;SDS011;16232;48.800;9.002;2023-05-08T05:29:54;31.13;;;26.93;;
92;SDS011;16232;48.800;9.002;2023-05-08T05:32:21;29.90;;;26.83;;
92;SDS011;16232;48.800;9.002;2023-05-08T05:34:49;27.80;;;24.90;;
92;SDS011;16232;48.800;9.002;2023-05-08T05:37:18;31.27;;;27.97;;
92;SDS011;16232;48.800;9.002;2023-05-08T05:39:45;34.43;;;29.77;;
92;SDS011;16232;48.800;9.002;2023-05-08T05:42:13;28.07;;;25.33;;
92;SDS011;16232;48.800;9.002;2023-05-08T05:44:42;24.90;;;22.50;;
92;SDS011;16232;48.800;9.002;2023-05-08T05:47:09;30.60;;;27.40;;
92;SDS011;16232;48.800;9.002;2023-05-08T05:49:37;29.27;;;26.33;;
92;SDS011;16232;48.800;9.002;2023-05-08T05:52:07;32.67;;;28.73;;
92;SDS011;16232;48.800;9.002;2023-05-08T05:54:34;27.40;;;24.70;;
92;SDS011;16232;48.800;9.002;2023-05-08T05:57:02;31.23;;;27.90;;
92;SDS011;16232;48.800;9.002;2023-05-08T05:59:29;31.70;;;28.27;;
92;SDS011;16232;48.800;9.002;2023-05-08T06:01:58;33.07;;;28.60;;
92;SDS011;16232;48.800;9.002;2023-05-08T06:04:26;29.27;;;26.23;;
92;SDS011;16232;48.800;9.002;2023-05-08T06:06:53;28.93;;;26.00;;
92;SDS011;16232;48.800;9.002;2023-05-08T06:09:20;26.60;;;23.90;;
92;SDS011;16232;48.800;9.002;2023-05-08T06:11:48;25.40;;;22.87;;
92;SDS011;16232;48.800;9.002;2023-05-08T06:14:15;24.90;;;22.57;;
92;SDS011;16232;48.800;9.002;2023-05-08T06:16:43;30.23;;;27.07;;
92;SDS011;16232;48.800;9.002;2023-05-08T06:19:12;27.17;;;24.43;;
92;SDS011;16232;48.800;9.002;2023-05-08T06:21:39;26.80;;;24.20;;
92;SDS011;16232;48.800;9.002;2023-05-08T06:24:06;26.90;;;24.10;;
92;SDS011;16232;48.800;9.002;2023-05-08T06:26:34;24.97;;;22.57;;
92;SDS011;16232;48.800;9.002;2023-05-08T06:29:01;24.03;;;21.63;;
92;SDS011;16232;48.800;9.002;2023-05-08T06:31:29;23.10;;;20.90;;
92;SDS011;16232;48.800;9.002;2023-05-08T06:33:56;22.97;;;20.67;;
92;SDS011;16232;48.800;9.002;2023-05-08T06:36:25;23.27;;;21.07;;
92;SDS011;16232;48.800;9.002;2023-05-08T06:38:52;24.83;;;22.43;;
92;SDS011;16232;48.800;9.002;2023-05-08T06:41:20;20.97;;;19.07;;
92;SDS011;16232;48.800;9.002;2023-05-08T06:43:47;24.67;;;22.17;;
92;SDS011;16232;48.800;9.002;2023-05-08T06:46:15;28.53;;;25.43;;
92;SDS011;16232;48.800;9.002;2023-05-08T06:48:42;24.97;;;22.37;;
92;SDS011;16232;48.800;9.002;2023-05-08T06:51:09;24.37;;;22.07;;
92;SDS011;16232;48.800;9.002;2023-05-08T06:53:38;25.90;;;23.40;;
92;SDS011;16232;48.800;9.002;2023-05-08T06:56:06;24.37;;;21.97;;
92;SDS011;16232;48.800;9.002;2023-05-08T06:58:33;22.20;;;20.27;;
92;SDS011;16232;48.800;9.002;2023-05-08T07:01:01;24.70;;;22.13;;
92;SDS011;16232;48.800;9.002;2023-05-08T07:03:28;26.50;;;23.57;;
92;SDS011;16232;48.800;9.002;2023-05-08T07:05:56;24.97;;;22.50;;
92;SDS011;16232;48.800;9.002;2023-05-08T07:08:23;22.27;;;20.13;;
92;SDS011;16232;48.800;9.002;2023-05-08T07:10:52;22.03;;;20.03;;
92;SDS011;16232;48.800;9.002;2023-05-08T07:13:20;22.03;;;20.00;;
92;SDS011;16232;48.800;9.002;2023-05-08T07:15:47;20.53;;;18.63;;
92;SDS011;16232;48.800;9.002;2023-05-08T07:18:15;20.97;;;18.93;;
92;SDS011;16232;48.800;9.002;2023-05-08T07:20:42;18.77;;;16.87;;
92;SDS011;16232;48.800;9.002;2023-05-08T07:23:09;18.00;;;16.40;;
92;SDS011;16232;48.800;9.002;2023-05-08T07:25:37;16.63;;;15.23;;
92;SDS011;16232;48.800;9.002;2023-05-08T07:28:06;17.93;;;16.40;;
92;SDS011;16232;48.800;9.002;2023-05-08T07:30:33;20.23;;;18.53;;
92;SDS011;16232;48.800;9.002;2023-05-08T07:33:01;17.97;;;16.33;;
92;SDS011;16232;48.800;9.002;2023-05-08T07:35:28;14.47;;;13.13;;
92;SDS011;16232;48.800;9.002;2023-05-08T07:37:56;13.73;;;12.53;;
92;SDS011;16232;48.800;9.002;2023-05-08T07:40:23;13.50;;;12.30;;
92;SDS011;16232;48.800;9.002;2023-05-08T07:42:51;13.13;;;12.00;;
92;SDS011;16232;48.800;9.002;2023-05-08T07:45:20;11.80;;;10.80;;
92;SDS011;16232;48.800;9.002;2023-05-08T07:47:47;12.37;;;11.17;;
92;SDS011;16232;48.800;9.002;2023-05-08T07:50:15;12.63;;;11.47;;
92;SDS011;16232;48.800;9.002;2023-05-08T07:52:42;12.30;;;11.10;;
92;SDS011;16232;48.800;9.002;2023-05-08T07:55:10;12.03;;;10.93;;
92;SDS011;16232;48.800;9.002;2023-05-08T07:57:38;11.70;;;10.60;;
92;SDS011;16232;48.800;9.002;2023-05-08T08:00:06;13.33;;;12.13;;
92;SDS011;16232;48.800;9.002;2023-05-08T08:02:35;13.87;;;12.57;;
92;SDS011;16232;48.800;9.002;2023-05-08T08:05:02;11.63;;;10.53;;
92;SDS011;16232;48.800;9.002;2023-05-08T08:07:30;12.33;;;11.33;;
92;SDS011;16232;48.800;9.002;2023-05-08T08:09:58;11.00;;;10.10;;
92;SDS011;16232;48.800;9.002;2023-05-08T08:12:25;13.33;;;12.07;;
92;SDS011;16232;48.800;9.002;2023-05-08T08:14:53;12.93;;;11.83;;
92;SDS011;16232;48.800;9.002;2023-05-08T08:17:21;10.63;;;9.67;;
92;SDS011;16232;48.800;9.002;2023-05-08T08:19:49;12.27;;;11.13;;
92;SDS011;16232;48.800;9.002;2023-05-08T08:22:17;10.77;;;9.87;;
92;SDS011;16232;48.800;9.002;2023-05-08T08:24:45;10.53;;;9.73;;
92;SDS011;16232;48.800;9.002;2023-05-08T08:27:12;11.03;;;10.13;;
92;SDS011;16232;48.800;9.002;2023-05-08T08:29:43;12.13;;;11.03;;
92;SDS011;16232;48.800;9.002;2023-05-08T08:32:10;10.53;;;9.53;;
92;SDS011;16232;48.800;9.002;2023-05-08T08:34:38;10.80;;;9.90;;
92;SDS011;16232;48.800;9.002;2023-05-08T08:37:06;8.63;;;7.93;;
92;SDS011;16232;48.800;9.002;2023-05-08T08:39:34;7.87;;;7.27;;
92;SDS011;16232;48.800;9.002;2023-05-08T08:42:02;9.33;;;8.33;;
92;SDS011;16232;48.800;9.002;2023-05-08T08:44:29;7.63;;;7.00;;
92;SDS011;16232;48.800;9.002;2023-05-08T08:46:57;8.37;;;7.60;;
92;SDS011;16232;48.800;9.002;2023-05-08T08:49:27;9.43;;;8.60;;
92;SDS011;16232;48.800;9.002;2023-05-08T08:51:57;8.43;;;7.03;;
92;SDS011;16232;48.800;9.002;2023-05-08T08:54:28;8.90;;;8.03;;
92;SDS011;16232;48.800;9.002;2023-05-08T08:56:56;10.17;;;9.33;;
92;SDS011;16232;48.800;9.002;2023-05-08T08:59:27;7.93;;;7.13;;
92;SDS011;16232;48.800;9.002;2023-05-08T09:01:55;8.33;;;7.63;;
92;SDS011;16232;48.800;9.002;2023-05-08T09:04:23;10.17;;;9.20;;
92;SDS011;16232;48.800;9.002;2023-05-08T09:06:52;9.70;;;8.87;;
92;SDS011;16232;48.800;9.002;2023-05-08T09:09:20;9.43;;;8.63;;
92;SDS011;16232;48.800;9.002;2023-05-08T09:11:49;7.90;;;7.20;;
92;SDS011;16232;48.800;9.002;2023-05-08T09:14:17;7.20;;;6.70;;
92;SDS011;16232;48.800;9.002;2023-05-08T09:16:45;9.17;;;8.40;;
92;SDS011;16232;48.800;9.002;2023-05-08T09:19:12;7.73;;;7.13;;
92;SDS011;16232;48.800;9.002;2023-05-08T09:21:40;7.20;;;6.70;;
92;SDS011;16232;48.800;9.002;2023-05-08T09:24:09;9.43;;;8.53;;
92;SDS011;16232;48.800;9.002;2023-05-08T09:26:37;10.97;;;9.87;;
92;SDS011;16232;48.800;9.002;2023-05-08T09:29:13;9.67;;;8.87;;
92;SDS011;16232;48.800;9.002;2023-05-08T09:31:41;8.13;;;7.27;;
92;SDS011;16232;48.800;9.002;2023-05-08T09:34:09;6.30;;;5.80;;
92;SDS011;16232;48.800;9.002;2023-05-08T09:36:37;5.63;;;5.23;;
92;SDS011;16232;48.800;9.002;2023-05-08T09:39:08;4.53;;;4.13;;
92;SDS011;16232;48.800;9.002;2023-05-08T09:41:37;5.13;;;4.73;;
92;SDS011;16232;48.800;9.002;2023-05-08T09:44:05;4.43;;;4.07;;
92;SDS011;16232;48.800;9.002;2023-05-08T09:46:34;6.10;;;5.60;;
92;SDS011;16232;48.800;9.002;2023-05-08T09:49:02;5.93;;;5.50;;
92;SDS011;16232;48.800;9.002;2023-05-08T09:51:30;6.20;;;5.60;;
92;SDS011;16232;48.800;9.002;2023-05-08T09:53:58;6.50;;;6.00;;
92;SDS011;16232;48.800;9.002;2023-05-08T09:56:32;5.17;;;4.77;;
92;SDS011;16232;48.800;9.002;2023-05-08T09:59:00;8.07;;;7.47;;
92;SDS011;16232;48.800;9.002;2023-05-08T10:01:28;4.80;;;4.40;;
92;SDS011;16232;48.800;9.002;2023-05-08T10:03:57;5.73;;;5.10;;
92;SDS011;16232;48.800;9.002;2023-05-08T10:06:25;6.27;;;5.70;;
92;SDS011;16232;48.800;9.002;2023-05-08T10:09:06;7.23;;;6.63;;
92;SDS011;16232;48.800;9.002;2023-05-08T10:11:34;7.03;;;6.43;;
92;SDS011;16232;48.800;9.002;2023-05-08T10:14:02;8.17;;;7.43;;
92;SDS011;16232;48.800;9.002;2023-05-08T10:16:29;7.43;;;6.83;;
92;SDS011;16232;48.800;9.002;2023-05-08T10:19:00;6.23;;;5.73;;
92;SDS011;16232;48.800;9.002;2023-05-08T10:21:30;5.93;;;5.50;;
92;SDS011;16232;48.800;9.002;2023-05-08T10:24:00;6.43;;;5.90;;
92;SDS011;16232;48.800;9.002;2023-05-08T10:26:30;6.50;;;5.90;;
92;SDS011;16232;48.800;9.002;2023-05-08T10:28:58;6.47;;;5.97;;
92;SDS011;16232;48.800;9.002;2023-05-08T10:31:28;8.13;;;7.37;;
92;SDS011;16232;48.800;9.002;2023-05-08T10:33:57;8.13;;;7.47;;
92;SDS011;16232;48.800;9.002;2023-05-08T10:36:27;7.63;;;7.00;;
92;SDS011;16232;48.800;9.002;2023-05-08T10:38:56;8.07;;;7.47;;
92;SDS011;16232;48.800;9.002;2023-05-08T10:41:24;7.67;;;7.07;;
92;SDS011;16232;48.800;9.002;2023-05-08T10:43:52;8.10;;;7.40;;
92;SDS011;16232;48.800;9.002;2023-05-08T10:46:20;6.90;;;6.30;;
92;SDS011;16232;48.800;9.002;2023-05-08T10:48:49;7.20;;;6.60;;
92;SDS011;16232;48.800;9.002;2023-05-08T10:51:20;7.50;;;6.90;;
92;SDS011;16232;48.800;9.002;2023-05-08T10:53:51;7.50;;;6.90;;
92;SDS011;16232;48.800;9.002;2023-05-08T10:56:23;7.50;;;6.90;;
92;SDS011;16232;48.800;9.002;2023-05-08T10:58:54;6.20;;;5.50;;
92;SDS011;16232;48.800;9.002;2023-05-08T11:01:22;6.47;;;5.97;;
92;SDS011;16232;48.800;9.002;2023-05-08T11:03:50;7.80;;;6.70;;
92;SDS011;16232;48.800;9.002;2023-05-08T11:09:02;6.10;;;5.60;;
92;SDS011;16232;48.800;9.002;2023-05-08T11:11:31;5.47;;;4.97;;
92;SDS011;16232;48.800;9.002;2023-05-08T11:14:08;6.67;;;6.17;;
92;SDS011;16232;48.800;9.002;2023-05-08T11:19:19;8.13;;;7.43;;
92;SDS011;16232;48.800;9.002;2023-05-08T11:24:37;7.73;;;7.03;;
92;SDS011;16232;48.800;9.002;2023-05-08T11:27:05;8.63;;;7.83;;
92;SDS011;16232;48.800;9.002;2023-05-08T11:29:33;7.43;;;6.77;;
92;SDS011;16232;48.800;9.002;2023-05-08T11:32:01;7.67;;;6.97;;
92;SDS011;16232;48.800;9.002;2023-05-08T11:34:45;8.37;;;7.67;;
92;SDS011;16232;48.800;9.002;2023-05-08T11:37:16;7.17;;;6.57;;
92;SDS011;16232;48.800;9.002;2023-05-08T11:39:46;6.50;;;5.97;;
92;SDS011;16232;48.800;9.002;2023-05-08T11:42:32;6.90;;;6.30;;
92;SDS011;16232;48.800;9.002;2023-05-08T11:45:12;7.43;;;6.73;;
92;SDS011;16232;48.800;9.002;2023-05-08T11:47:40;8.23;;;7.43;;
92;SDS011;16232;48.800;9.002;2023-05-08T11:50:08;6.70;;;6.10;;
92;SDS011;16232;48.800;9.002;2023-05-08T11:52:36;7.37;;;6.67;;
92;SDS011;16232;48.800;9.002;2023-05-08T11:55:06;7.57;;;6.87;;
92;SDS011;16232;48.800;9.002;2023-05-08T11:57:34;7.60;;;6.90;;
92;SDS011;16232;48.800;9.002;2023-05-08T12:00:05;7.30;;;6.70;;
92;SDS011;16232;48.800;9.002;2023-05-08T12:02:36;7.53;;;6.90;;
92;SDS011;16232;48.800;9.002;2023-05-08T12:05:03;8.50;;;7.70;;
92;SDS011;16232;48.800;9.002;2023-05-08T12:07:31;9.37;;;8.50;;
92;SDS011;16232;48.800;9.002;2023-05-08T12:09:59;8.77;;;7.97;;
92;SDS011;16232;48.800;9.002;2023-05-08T12:12:38;9.20;;;8.40;;
92;SDS011;16232;48.800;9.002;2023-05-08T12:15:06;9.47;;;8.57;;
92;SDS011;16232;48.800;9.002;2023-05-08T12:17:33;9.93;;;8.93;;
92;SDS011;16232;48.800;9.002;2023-05-08T12:20:08;10.87;;;9.77;;
92;SDS011;16232;48.800;9.002;2023-05-08T12:22:37;11.37;;;10.20;;
92;SDS011;16232;48.800;9.002;2023-05-08T12:25:05;9.70;;;8.80;;
92;SDS011;16232;48.800;9.002;2023-05-08T12:27:33;11.53;;;10.17;;
92;SDS011;16232;48.800;9.002;2023-05-08T12:30:05;11.90;;;10.70;;
92;SDS011;16232;48.800;9.002;2023-05-08T12:32:35;10.80;;;9.80;;
92;SDS011;16232;48.800;9.002;2023-05-08T12:35:03;15.50;;;14.10;;
92;SDS011;16232;48.800;9.002;2023-05-08T12:37:30;17.70;;;15.80;;
92;SDS011;16232;48.800;9.002;2023-05-08T12:39:58;17.70;;;16.10;;
92;SDS011;16232;48.800;9.002;2023-05-08T12:45:10;19.10;;;17.40;;
92;SDS011;16232;48.800;9.002;2023-05-08T12:47:44;16.23;;;14.83;;
92;SDS011;16232;48.800;9.002;2023-05-08T12:50:13;16.63;;;15.13;;
92;SDS011;16232;48.800;9.002;2023-05-08T12:52:40;19.57;;;17.80;;
92;SDS011;16232;48.800;9.002;2023-05-08T12:58:00;20.60;;;18.47;;
92;SDS011;16232;48.800;9.002;2023-05-08T13:00:39;19.30;;;17.53;;
92;SDS011;16232;48.800;9.002;2023-05-08T13:03:06;20.80;;;18.90;;
92;SDS011;16232;48.800;9.002;2023-05-08T13:05:35;20.10;;;18.20;;
92;SDS011;16232;48.800;9.002;2023-05-08T13:08:03;23.43;;;21.13;;
92;SDS011;16232;48.800;9.002;2023-05-08T13:10:43;21.43;;;19.47;;
92;SDS011;16232;48.800;9.002;2023-05-08T13:13:11;21.57;;;19.67;;
92;SDS011;16232;48.800;9.002;2023-05-08T13:15:40;20.70;;;18.80;;
92;SDS011;16232;48.800;9.002;2023-05-08T13:18:07;19.57;;;17.77;;
92;SDS011;16232;48.800;9.002;2023-05-08T13:20:35;20.17;;;18.37;;
92;SDS011;16232;48.800;9.002;2023-05-08T13:23:02;23.87;;;21.63;;
92;SDS011;16232;48.800;9.002;2023-05-08T13:25:29;19.57;;;17.80;;
92;SDS011;16232;48.800;9.002;2023-05-08T13:27:57;18.77;;;17.07;;
92;SDS011;16232;48.800;9.002;2023-05-08T13:30:25;17.80;;;16.20;;
92;SDS011;16232;48.800;9.002;2023-05-08T13:32:53;19.33;;;17.63;;
92;SDS011;16232;48.800;9.002;2023-05-08T13:35:21;17.43;;;15.83;;
92;SDS011;16232;48.800;9.002;2023-05-08T13:37:49;16.60;;;15.20;;
92;SDS011;16232;48.800;9.002;2023-05-08T13:40:16;16.80;;;15.33;;
92;SDS011;16232;48.800;9.002;2023-05-08T13:42:44;16.93;;;15.33;;
92;SDS011;16232;48.800;9.002;2023-05-08T13:45:12;18.03;;;16.33;;
92;SDS011;16232;48.800;9.002;2023-05-08T13:47:39;17.53;;;16.03;;
92;SDS011;16232;48.800;9.002;2023-05-08T13:50:09;18.57;;;16.93;;
92;SDS011;16232;48.800;9.002;2023-05-08T13:52:37;17.53;;;16.07;;
92;SDS011;16232;48.800;9.002;2023-05-08T13:55:05;17.77;;;16.23;;
92;SDS011;16232;48.800;9.002;2023-05-08T13:57:33;15.63;;;14.13;;
92;SDS011;16232;48.800;9.002;2023-05-08T14:00:01;18.30;;;16.60;;
92;SDS011;16232;48.800;9.002;2023-05-08T14:02:28;18.83;;;17.03;;
92;SDS011;16232;48.800;9.002;2023-05-08T14:04:56;16.63;;;15.13;;
92;SDS011;16232;48.800;9.002;2023-05-08T14:07:25;15.83;;;14.53;;
92;SDS011;16232;48.800;9.002;2023-05-08T14:09:52;16.77;;;15.20;;
92;SDS011;16232;48.800;9.002;2023-05-08T14:12:19;14.93;;;13.50;;
92;SDS011;16232;48.800;9.002;2023-05-08T14:14:47;16.70;;;15.13;;
92;SDS011;16232;48.800;9.002;2023-05-08T14:17:14;16.47;;;15.03;;
92;SDS011;16232;48.800;9.002;2023-05-08T14:19:42;16.20;;;14.80;;
92;SDS011;16232;48.800;9.002;2023-05-08T14:22:10;16.70;;;15.07;;
92;SDS011;16232;48.800;9.002;2023-05-08T14:24:39;16.20;;;14.77;;
92;SDS011;16232;48.800;9.002;2023-05-08T14:27:06;16.10;;;14.60;;
92;SDS011;16232;48.800;9.002;2023-05-08T14:29:33;17.57;;;16.07;;
92;SDS011;16232;48.800;9.002;2023-05-08T14:32:01;14.80;;;13.57;;
92;SDS011;16232;48.800;9.002;2023-05-08T14:34:28;15.93;;;14.43;;
92;SDS011;16232;48.800;9.002;2023-05-08T14:36:56;17.93;;;16.13;;
92;SDS011;16232;48.800;9.002;2023-05-08T14:39:23;17.10;;;15.43;;
92;SDS011;16232;48.800;9.002;2023-05-08T14:41:52;15.97;;;14.50;;
92;SDS011;16232;48.800;9.002;2023-05-08T14:44:19;16.33;;;14.73;;
92;SDS011;16232;48.800;9.002;2023-05-08T14:46:47;18.07;;;16.43;;
92;SDS011;16232;48.800;9.002;2023-05-08T14:49:14;16.97;;;15.30;;
92;SDS011;16232;48.800;9.002;2023-05-08T14:51:41;16.80;;;15.30;;
92;SDS011;16232;48.800;9.002;2023-05-08T14:54:09;19.00;;;17.30;;
92;SDS011;16232;48.800;9.002;2023-05-08T14:56:36;16.73;;;15.23;;
92;SDS011;16232;48.800;9.002;2023-05-08T14:59:05;16.10;;;14.63;;
92;SDS011;16232;48.800;9.002;2023-05-08T15:01:33;17.27;;;15.77;;
92;SDS011;16232;48.800;9.002;2023-05-08T15:04:06;15.87;;;14.47;;
92;SDS011;16232;48.800;9.002;2023-05-08T15:06:33;16.30;;;14.80;;
92;SDS011;16232;48.800;9.002;2023-05-08T15:09:00;17.47;;;15.97;;
92;SDS011;16232;48.800;9.002;2023-05-08T15:11:28;17.40;;;15.80;;
92;SDS011;16232;48.800;9.002;2023-05-08T15:13:56;16.30;;;14.90;;
92;SDS011;16232;48.800;9.002;2023-05-08T15:16:27;17.37;;;15.83;;
92;SDS011;16232;48.800;9.002;2023-05-08T15:18:54;17.50;;;16.00;;
92;SDS011;16232;48.800;9.002;2023-05-08T15:21:22;16.33;;;14.83;;
92;SDS011;16232;48.800;9.002;2023-05-08T15:23:52;16.93;;;15.23;;
92;SDS011;16232;48.800;9.002;2023-05-08T15:26:19;17.40;;;15.90;;
92;SDS011;16232;48.800;9.002;2023-05-08T15:28:47;18.90;;;17.23;;
92;SDS011;16232;48.800;9.002;2023-05-08T15:31:15;17.07;;;15.47;;
92;SDS011;16232;48.800;9.002;2023-05-08T15:33:44;17.83;;;16.03;;
92;SDS011;16232;48.800;9.002;2023-05-08T15:36:12;17.83;;;16.23;;